createdAt,value
2022-07-30T00:01:35.653Z,19.50
2022-07-30T00:04:03.403Z,19.50
2022-07-30T00:06:30.485Z,19.40
2022-07-30T00:08:57.564Z,19.40
2022-07-30T00:11:27.891Z,19.40
2022-07-30T00:13:56.047Z,19.40
2022-07-30T00:16:23.175Z,19.40
2022-07-30T00:18:50.338Z,19.40
2022-07-30T00:21:20.192Z,19.40
2022-07-30T00:24:03.930Z,19.40
2022-07-30T00:26:30.914Z,19.30
2022-07-30T00:28:58.261Z,19.30
2022-07-30T00:31:25.213Z,19.30
2022-07-30T00:33:52.220Z,19.30
2022-07-30T00:36:19.246Z,19.30
2022-07-30T00:38:46.363Z,19.30
2022-07-30T00:41:15.644Z,19.30
2022-07-30T00:43:43.879Z,19.30
2022-07-30T00:46:10.953Z,19.30
2022-07-30T00:48:38.154Z,19.30
2022-07-30T00:51:05.238Z,19.30
2022-07-30T00:53:32.363Z,19.20
2022-07-30T00:55:59.525Z,19.20
2022-07-30T00:58:26.625Z,19.20
2022-07-30T01:00:53.821Z,19.20
2022-07-30T01:03:21.005Z,19.10
2022-07-30T01:05:48.127Z,19.10
2022-07-30T01:08:15.052Z,19.10
2022-07-30T01:10:42.168Z,19.10
2022-07-30T01:13:10.084Z,19.00
2022-07-30T01:15:38.702Z,19.00
2022-07-30T01:18:08.129Z,19.00
2022-07-30T01:20:52.065Z,19.00
2022-07-30T01:23:31.969Z,19.00
2022-07-30T01:26:08.745Z,19.00
2022-07-30T01:29:02.854Z,19.00
2022-07-30T01:31:30.963Z,19.00
2022-07-30T01:34:00.915Z,19.00
2022-07-30T01:36:29.443Z,19.00
2022-07-30T01:38:58.183Z,19.00
2022-07-30T01:41:25.740Z,19.00
2022-07-30T01:43:53.401Z,19.00
2022-07-30T01:46:23.742Z,19.00
2022-07-30T01:48:51.630Z,19.00
2022-07-30T01:51:19.929Z,19.00
2022-07-30T01:53:51.486Z,18.90
2022-07-30T01:56:24.569Z,18.90
2022-07-30T01:58:54.220Z,18.90
2022-07-30T02:01:25.005Z,18.90
2022-07-30T02:03:59.568Z,18.90
2022-07-30T02:06:33.242Z,18.90
2022-07-30T02:09:10.625Z,18.90
2022-07-30T02:12:05.825Z,18.90
2022-07-30T02:14:49.375Z,18.90
2022-07-30T02:17:30.024Z,18.80
2022-07-30T02:19:59.306Z,18.80
2022-07-30T02:22:32.423Z,18.80
2022-07-30T02:25:01.660Z,18.80
2022-07-30T02:27:33.594Z,18.80
2022-07-30T02:30:03.657Z,18.80
2022-07-30T02:32:35.967Z,18.70
2022-07-30T02:35:10.459Z,18.70
2022-07-30T02:37:43.886Z,18.70
2022-07-30T02:40:16.882Z,18.70
2022-07-30T02:42:46.923Z,18.80
2022-07-30T02:45:17.821Z,18.80
2022-07-30T02:47:56.208Z,18.70
2022-07-30T02:50:24.534Z,18.70
2022-07-30T02:52:53.411Z,18.70
2022-07-30T02:55:22.055Z,18.70
2022-07-30T02:57:52.568Z,18.60
2022-07-30T03:00:21.962Z,18.60
2022-07-30T03:02:51.872Z,18.60
2022-07-30T03:05:24.700Z,18.50
2022-07-30T03:07:59.734Z,18.50
2022-07-30T03:10:27.868Z,18.50
2022-07-30T03:12:56.206Z,18.50
2022-07-30T03:15:23.299Z,18.40
2022-07-30T03:17:53.591Z,18.40
2022-07-30T03:20:28.181Z,18.40
2022-07-30T03:22:56.690Z,18.40
2022-07-30T03:25:26.250Z,18.50
2022-07-30T03:27:56.589Z,18.40
2022-07-30T03:30:27.862Z,18.40
2022-07-30T03:32:56.023Z,18.40
2022-07-30T03:35:27.119Z,18.40
2022-07-30T03:38:00.033Z,18.40
2022-07-30T03:40:28.618Z,18.40
2022-07-30T03:42:55.997Z,18.40
2022-07-30T03:45:25.198Z,18.40
2022-07-30T03:47:57.405Z,18.40
2022-07-30T03:50:24.746Z,18.40
2022-07-30T03:52:52.264Z,18.40
2022-07-30T03:55:19.231Z,18.40
2022-07-30T03:57:46.213Z,18.40
2022-07-30T04:00:14.925Z,18.40
2022-07-30T04:02:47.632Z,18.40
2022-07-30T04:05:41.164Z,18.40
2022-07-30T04:08:08.824Z,18.50
2022-07-30T04:10:35.921Z,18.40
2022-07-30T04:13:35.244Z,18.40
2022-07-30T04:16:39.641Z,18.40
2022-07-30T04:19:08.938Z,18.40
2022-07-30T04:21:37.686Z,18.40
2022-07-30T04:24:06.628Z,18.40
2022-07-30T04:26:37.179Z,18.40
2022-07-30T04:29:07.381Z,18.40
2022-07-30T04:31:40.712Z,18.40
2022-07-30T04:34:31.351Z,18.40
2022-07-30T04:36:58.498Z,18.40
2022-07-30T04:39:25.568Z,18.40
2022-07-30T04:41:52.707Z,18.40
2022-07-30T04:44:30.826Z,18.40
2022-07-30T04:47:35.851Z,18.40
2022-07-30T04:50:41.928Z,18.40
2022-07-30T04:53:11.991Z,18.40
2022-07-30T04:55:46.847Z,18.30
2022-07-30T04:58:16.243Z,18.30
2022-07-30T05:00:44.478Z,18.30
2022-07-30T05:03:16.356Z,18.30
2022-07-30T05:05:54.066Z,18.30
2022-07-30T05:08:28.239Z,18.30
2022-07-30T05:10:58.497Z,18.30
2022-07-30T05:13:27.515Z,18.30
2022-07-30T05:16:01.383Z,18.20
2022-07-30T05:18:28.557Z,18.20
2022-07-30T05:20:55.500Z,18.20
2022-07-30T05:23:26.902Z,18.20
2022-07-30T05:26:04.583Z,18.20
2022-07-30T05:28:36.863Z,18.20
2022-07-30T05:31:08.659Z,18.30
2022-07-30T05:33:42.594Z,18.30
2022-07-30T05:36:15.615Z,18.30
2022-07-30T05:38:42.602Z,18.20
2022-07-30T05:41:33.020Z,18.20
2022-07-30T05:44:01.180Z,18.20
2022-07-30T05:46:28.546Z,18.20
2022-07-30T05:48:55.649Z,18.20
2022-07-30T05:51:22.754Z,18.30
2022-07-30T05:53:49.851Z,18.30
2022-07-30T05:56:36.145Z,18.30
2022-07-30T05:59:10.427Z,18.30
2022-07-30T06:02:03.911Z,18.20
2022-07-30T06:04:46.332Z,18.30
2022-07-30T06:07:13.450Z,18.30
2022-07-30T06:09:40.701Z,18.30
2022-07-30T06:12:08.605Z,18.30
2022-07-30T06:14:35.692Z,18.20
2022-07-30T06:17:04.097Z,18.30
2022-07-30T06:19:50.768Z,18.30
2022-07-30T06:22:20.702Z,18.30
2022-07-30T06:24:50.563Z,18.30
2022-07-30T06:27:21.197Z,18.30
2022-07-30T06:29:48.103Z,18.30
2022-07-30T06:32:17.343Z,18.30
2022-07-30T06:34:47.694Z,18.20
2022-07-30T06:37:14.654Z,18.30
2022-07-30T06:39:56.499Z,18.20
2022-07-30T06:42:34.034Z,18.30
2022-07-30T06:45:31.003Z,18.20
2022-07-30T06:48:16.917Z,18.30
2022-07-30T06:50:44.146Z,18.30
2022-07-30T06:53:11.140Z,18.30
2022-07-30T06:56:07.402Z,18.30
2022-07-30T06:58:43.635Z,18.20
2022-07-30T07:01:33.820Z,18.30
2022-07-30T07:04:01.018Z,18.30
2022-07-30T07:06:28.107Z,18.20
2022-07-30T07:08:55.129Z,18.20
2022-07-30T07:11:30.411Z,18.30
2022-07-30T07:14:04.292Z,18.30
2022-07-30T07:16:35.119Z,18.30
2022-07-30T07:20:00.238Z,18.30
2022-07-30T07:22:07.671Z,18.40
2022-07-30T07:24:34.614Z,18.40
2022-07-30T07:27:15.398Z,18.40
2022-07-30T07:30:04.619Z,18.40
2022-07-30T07:32:32.152Z,18.50
2022-07-30T07:34:59.070Z,18.50
2022-07-30T07:37:26.711Z,18.60
2022-07-30T07:39:53.671Z,18.60
2022-07-30T07:42:20.732Z,18.70
2022-07-30T07:44:48.725Z,18.70
2022-07-30T07:47:16.890Z,18.80
2022-07-30T07:49:56.116Z,18.80
2022-07-30T07:52:23.604Z,18.80
2022-07-30T07:54:50.571Z,18.90
2022-07-30T07:57:18.147Z,18.90
2022-07-30T07:59:47.388Z,18.90
2022-07-30T08:02:21.585Z,19.00
2022-07-30T08:05:06.865Z,19.00
2022-07-30T08:07:52.951Z,19.10
2022-07-30T08:10:43.090Z,19.10
2022-07-30T08:13:48.154Z,19.10
2022-07-30T08:16:47.924Z,19.20
2022-07-30T08:19:32.378Z,19.20
2022-07-30T08:22:11.801Z,19.20
2022-07-30T08:24:40.080Z,19.20
2022-07-30T08:27:07.115Z,19.20
2022-07-30T08:29:34.225Z,19.20
2022-07-30T08:32:02.301Z,19.20
2022-07-30T08:34:29.606Z,19.20
2022-07-30T08:36:57.759Z,19.20
2022-07-30T08:39:25.451Z,19.20
2022-07-30T08:41:52.400Z,19.20
2022-07-30T08:44:21.786Z,19.20
2022-07-30T08:46:56.184Z,19.30
2022-07-30T08:49:29.059Z,19.30
2022-07-30T08:51:56.828Z,19.20
2022-07-30T08:54:40.717Z,19.30
2022-07-30T08:57:08.150Z,19.20
2022-07-30T08:59:59.010Z,19.20
2022-07-30T09:02:29.751Z,19.30
2022-07-30T09:05:02.776Z,19.30
2022-07-30T09:07:31.812Z,19.30
2022-07-30T09:09:59.114Z,19.30
2022-07-30T09:12:42.355Z,19.40
2022-07-30T09:15:14.199Z,19.40
2022-07-30T09:17:53.409Z,19.40
2022-07-30T09:20:24.258Z,19.50
2022-07-30T09:22:53.819Z,19.50
2022-07-30T09:25:48.931Z,19.50
2022-07-30T09:28:34.979Z,19.60
2022-07-30T09:31:14.073Z,19.60
2022-07-30T09:34:29.103Z,19.60
2022-07-30T09:37:12.654Z,19.60
2022-07-30T09:40:15.754Z,19.70
2022-07-30T09:43:11.380Z,19.70
2022-07-30T09:45:57.245Z,19.70
2022-07-30T09:48:27.293Z,19.80
2022-07-30T09:50:55.461Z,19.80
2022-07-30T09:53:25.234Z,19.90
2022-07-30T09:55:52.488Z,19.90
2022-07-30T09:58:26.517Z,19.90
2022-07-30T10:00:59.609Z,19.90
2022-07-30T10:03:46.670Z,20.00
2022-07-30T10:06:38.247Z,20.00
2022-07-30T10:09:32.240Z,20.00
2022-07-30T10:12:05.163Z,20.00
2022-07-30T10:14:42.514Z,20.00
2022-07-30T10:17:12.094Z,20.00
2022-07-30T10:19:41.886Z,20.10
2022-07-30T10:22:27.928Z,20.10
2022-07-30T10:25:23.168Z,20.10
2022-07-30T10:28:00.042Z,20.20
2022-07-30T10:30:32.141Z,20.20
2022-07-30T10:33:01.368Z,20.20
2022-07-30T10:35:34.379Z,20.30
2022-07-30T10:38:13.938Z,20.30
2022-07-30T10:40:54.181Z,20.30
2022-07-30T10:43:42.866Z,20.30
2022-07-30T10:46:42.473Z,20.30
2022-07-30T10:49:18.864Z,20.30
2022-07-30T10:51:57.434Z,20.30
2022-07-30T10:54:33.840Z,20.30
2022-07-30T10:57:09.595Z,20.30
2022-07-30T10:59:55.699Z,20.30
2022-07-30T11:02:25.340Z,20.40
2022-07-30T11:05:44.915Z,20.40
2022-07-30T11:08:31.859Z,20.50
2022-07-30T11:10:59.553Z,20.60
2022-07-30T11:13:54.120Z,20.70
2022-07-30T11:16:23.299Z,20.80
2022-07-30T11:19:56.067Z,20.80
2022-07-30T11:22:27.291Z,20.80
2022-07-30T11:24:54.730Z,20.90
2022-07-30T11:27:46.488Z,20.90
2022-07-30T11:30:18.885Z,20.90
2022-07-30T11:32:50.250Z,21.00
2022-07-30T11:35:23.050Z,20.90
2022-07-30T11:38:06.928Z,20.90
2022-07-30T11:40:46.980Z,21.00
2022-07-30T11:43:35.752Z,21.00
2022-07-30T11:46:06.614Z,21.10
2022-07-30T11:48:34.268Z,21.20
2022-07-30T11:51:03.937Z,21.30
2022-07-30T11:53:31.748Z,21.30
2022-07-30T11:56:01.654Z,21.40
2022-07-30T11:58:34.675Z,21.40
2022-07-30T12:01:09.345Z,21.40
2022-07-30T12:03:41.056Z,21.40
2022-07-30T12:06:13.703Z,21.50
2022-07-30T12:08:42.288Z,21.50
2022-07-30T12:11:10.555Z,21.60
2022-07-30T12:13:44.577Z,21.60
2022-07-30T12:16:18.411Z,21.60
2022-07-30T12:18:46.717Z,21.70
2022-07-30T12:21:17.560Z,21.70
2022-07-30T12:23:58.983Z,21.70
2022-07-30T12:26:31.881Z,21.70
2022-07-30T12:29:01.351Z,21.70
2022-07-30T12:31:29.220Z,21.70
2022-07-30T12:34:00.405Z,21.70
2022-07-30T12:36:32.590Z,21.80
2022-07-30T12:39:01.565Z,21.80
2022-07-30T12:41:45.647Z,21.80
2022-07-30T12:44:39.554Z,21.90
2022-07-30T12:47:19.216Z,22.00
2022-07-30T12:49:49.594Z,22.00
2022-07-30T12:52:28.226Z,21.90
2022-07-30T12:55:02.297Z,22.00
2022-07-30T12:57:58.363Z,22.10
2022-07-30T13:00:31.211Z,22.10
2022-07-30T13:02:58.979Z,22.20
2022-07-30T13:05:48.886Z,22.30
2022-07-30T13:08:16.149Z,22.30
2022-07-30T13:11:00.432Z,22.30
2022-07-30T13:13:28.822Z,22.30
2022-07-30T13:16:05.103Z,22.20
2022-07-30T13:18:33.671Z,22.20
2022-07-30T13:21:01.992Z,22.40
2022-07-30T13:23:29.944Z,22.40
2022-07-30T13:25:57.601Z,22.40
2022-07-30T13:28:25.451Z,22.40
2022-07-30T13:30:52.579Z,22.40
2022-07-30T13:33:19.739Z,22.40
2022-07-30T13:35:46.569Z,22.50
2022-07-30T13:38:13.736Z,22.60
2022-07-30T13:40:41.358Z,22.60
2022-07-30T13:43:08.317Z,22.60
2022-07-30T13:45:35.920Z,22.70
2022-07-30T13:48:04.052Z,22.80
2022-07-30T13:50:30.957Z,22.80
2022-07-30T13:53:01.975Z,22.80
2022-07-30T13:55:29.828Z,22.80
2022-07-30T13:57:56.812Z,22.90
2022-07-30T14:00:24.535Z,22.90
2022-07-30T14:02:51.744Z,22.90
2022-07-30T14:05:18.683Z,22.90
2022-07-30T14:07:45.619Z,23.00
2022-07-30T14:10:12.563Z,23.00
2022-07-30T14:12:40.059Z,23.00
2022-07-30T14:15:09.359Z,23.00
2022-07-30T14:17:36.504Z,23.10
2022-07-30T14:20:04.405Z,23.10
2022-07-30T14:22:31.308Z,23.10
2022-07-30T14:25:00.243Z,23.10
2022-07-30T14:27:27.194Z,23.10
2022-07-30T14:29:54.161Z,23.10
2022-07-30T14:32:21.047Z,23.10
2022-07-30T14:34:50.593Z,23.10
2022-07-30T14:37:17.568Z,23.10
2022-07-30T14:39:44.459Z,23.20
2022-07-30T14:42:11.538Z,23.20
2022-07-30T14:44:38.447Z,23.20
2022-07-30T14:47:05.698Z,23.20
2022-07-30T14:49:32.896Z,23.20
2022-07-30T14:52:00.961Z,23.20
2022-07-30T14:54:31.471Z,23.20
2022-07-30T14:56:58.858Z,23.20
2022-07-30T14:59:27.453Z,23.20
2022-07-30T15:01:55.352Z,23.20
2022-07-30T15:04:23.106Z,23.20
2022-07-30T15:06:50.020Z,23.30
2022-07-30T15:09:16.935Z,23.30
2022-07-30T15:12:08.519Z,23.30
2022-07-30T15:14:30.762Z,23.30
2022-07-30T15:17:03.486Z,23.30
2022-07-30T15:19:33.043Z,23.30
2022-07-30T15:22:02.485Z,23.30
2022-07-30T15:24:31.337Z,23.30
2022-07-30T15:26:58.632Z,23.20
2022-07-30T15:29:28.074Z,23.20
2022-07-30T15:31:55.027Z,23.20
2022-07-30T15:34:25.436Z,23.20
2022-07-30T15:36:53.616Z,23.20
2022-07-30T15:39:20.552Z,23.20
2022-07-30T15:41:47.528Z,23.20
2022-07-30T15:44:19.536Z,23.20
2022-07-30T15:46:47.028Z,23.10
2022-07-30T15:49:14.069Z,23.10
2022-07-30T15:51:47.529Z,23.10
2022-07-30T15:54:22.155Z,23.10
2022-07-30T15:56:51.605Z,23.00
2022-07-30T15:59:18.712Z,23.00
2022-07-30T16:01:45.667Z,23.00
2022-07-30T16:04:18.902Z,23.10
2022-07-30T16:06:48.494Z,23.10
2022-07-30T16:09:16.337Z,23.10
2022-07-30T16:11:43.413Z,23.10
2022-07-30T16:14:10.761Z,23.10
2022-07-30T16:16:37.743Z,23.10
2022-07-30T16:19:04.596Z,23.10
2022-07-30T16:21:31.511Z,23.00
2022-07-30T16:23:58.565Z,23.00
2022-07-30T16:26:25.473Z,22.90
2022-07-30T16:28:52.519Z,22.90
2022-07-30T16:31:19.457Z,22.90
2022-07-30T16:33:47.281Z,22.90
2022-07-30T16:36:14.395Z,22.90
2022-07-30T16:38:41.635Z,22.90
2022-07-30T16:41:13.396Z,22.90
2022-07-30T16:43:40.810Z,22.90
2022-07-30T16:46:07.835Z,22.90
2022-07-30T16:48:34.790Z,22.90
2022-07-30T16:51:01.709Z,22.90
2022-07-30T16:53:28.905Z,22.90
2022-07-30T16:55:57.044Z,22.90
2022-07-30T16:58:28.366Z,22.90
2022-07-30T17:00:58.325Z,22.90
2022-07-30T17:03:25.675Z,22.90
2022-07-30T17:05:53.077Z,22.90
2022-07-30T17:08:24.803Z,22.90
2022-07-30T17:10:52.797Z,22.90
2022-07-30T17:13:20.902Z,22.80
2022-07-30T17:15:48.545Z,22.80
2022-07-30T17:18:16.008Z,22.80
2022-07-30T17:20:43.678Z,22.80
2022-07-30T17:23:10.771Z,22.70
2022-07-30T17:25:37.762Z,22.70
2022-07-30T17:28:04.815Z,22.70
2022-07-30T17:30:31.710Z,22.80
2022-07-30T17:32:58.773Z,22.70
2022-07-30T17:35:26.339Z,22.70
2022-07-30T17:37:53.701Z,22.70
2022-07-30T17:40:30.742Z,22.60
2022-07-30T17:43:07.643Z,22.60
2022-07-30T17:45:36.337Z,22.60
2022-07-30T17:48:04.923Z,22.60
2022-07-30T17:50:33.061Z,22.50
2022-07-30T17:53:03.468Z,22.50
2022-07-30T17:55:31.369Z,22.50
2022-07-30T17:57:58.260Z,22.50
2022-07-30T18:00:25.207Z,22.50
2022-07-30T18:02:52.113Z,22.40
2022-07-30T18:05:19.215Z,22.40
2022-07-30T18:07:46.130Z,22.40
2022-07-30T18:10:13.384Z,22.40
2022-07-30T18:12:48.341Z,22.40
2022-07-30T18:15:16.703Z,22.30
2022-07-30T18:17:43.640Z,22.30
2022-07-30T18:20:11.177Z,22.30
2022-07-30T18:22:38.252Z,22.30
2022-07-30T18:25:18.796Z,22.30
2022-07-30T18:27:46.907Z,22.20
2022-07-30T18:30:14.079Z,22.20
2022-07-30T18:32:41.096Z,22.20
2022-07-30T18:35:12.162Z,22.20
2022-07-30T18:37:42.117Z,22.20
2022-07-30T18:40:10.396Z,22.20
2022-07-30T18:42:37.393Z,22.10
2022-07-30T18:45:04.816Z,22.10
2022-07-30T18:47:31.894Z,22.10
2022-07-30T18:49:58.977Z,22.00
2022-07-30T18:52:26.612Z,22.00
2022-07-30T18:54:53.637Z,21.90
2022-07-30T18:57:20.793Z,21.90
2022-07-30T18:59:47.650Z,21.80
2022-07-30T19:02:14.585Z,21.80
2022-07-30T19:04:41.564Z,21.80
2022-07-30T19:07:08.685Z,21.70
2022-07-30T19:09:35.961Z,21.70
2022-07-30T19:12:04.078Z,21.70
2022-07-30T19:14:31.233Z,21.60
2022-07-30T19:16:59.218Z,21.60
2022-07-30T19:19:27.372Z,21.50
2022-07-30T19:21:54.452Z,21.50
2022-07-30T19:24:21.743Z,21.40
2022-07-30T19:26:49.023Z,21.30
2022-07-30T19:29:16.213Z,21.30
2022-07-30T19:31:43.161Z,21.30
2022-07-30T19:34:11.077Z,21.30
2022-07-30T19:36:39.631Z,21.30
2022-07-30T19:39:06.995Z,21.20
2022-07-30T19:41:40.692Z,21.10
2022-07-30T19:44:12.049Z,21.00
2022-07-30T19:46:41.309Z,21.00
2022-07-30T19:49:12.077Z,21.00
2022-07-30T19:52:10.229Z,21.00
2022-07-30T19:54:25.924Z,21.00
2022-07-30T19:56:52.754Z,20.90
2022-07-30T20:02:08.427Z,20.80
2022-07-30T20:04:36.983Z,20.80
2022-07-30T20:07:04.360Z,20.80
2022-07-30T20:09:31.350Z,20.70
2022-07-30T20:11:59.946Z,20.70
2022-07-30T20:14:30.058Z,20.70
2022-07-30T20:16:56.980Z,20.60
2022-07-30T20:19:36.003Z,20.60
2022-07-30T20:22:03.506Z,20.50
2022-07-30T20:24:30.422Z,20.50
2022-07-30T20:26:58.143Z,20.50
2022-07-30T20:29:25.039Z,20.50
2022-07-30T20:31:52.059Z,20.40
2022-07-30T20:34:23.795Z,20.40
2022-07-30T20:36:53.921Z,20.30
2022-07-30T20:39:24.859Z,20.30
2022-07-30T20:42:07.557Z,20.30
2022-07-30T20:44:40.487Z,20.30
2022-07-30T20:47:11.284Z,20.30
2022-07-30T20:49:39.923Z,20.30
2022-07-30T20:52:09.799Z,20.30
2022-07-30T20:54:37.659Z,20.30
2022-07-30T20:57:15.589Z,20.20
2022-07-30T20:59:43.387Z,20.20
2022-07-30T21:02:15.239Z,20.20
2022-07-30T21:04:42.386Z,20.20
2022-07-30T21:07:13.512Z,20.10
2022-07-30T21:09:49.961Z,20.10
2022-07-30T21:12:19.640Z,20.10
2022-07-30T21:14:59.940Z,20.00
2022-07-30T21:17:26.871Z,20.00
2022-07-30T21:19:55.249Z,20.00
2022-07-30T21:22:22.600Z,20.00
2022-07-30T21:24:50.831Z,20.00
2022-07-30T21:27:19.075Z,19.90
2022-07-30T21:29:46.385Z,19.90
2022-07-30T21:32:14.685Z,19.90
2022-07-30T21:34:46.367Z,19.90
2022-07-30T21:37:15.431Z,19.90
2022-07-30T21:39:42.849Z,19.90
2022-07-30T21:42:09.786Z,19.80
2022-07-30T21:44:37.688Z,19.80
2022-07-30T21:47:08.355Z,19.80
2022-07-30T21:49:37.654Z,19.80
2022-07-30T21:52:05.243Z,19.80
2022-07-30T21:54:37.490Z,19.80
2022-07-30T21:57:12.714Z,19.80
2022-07-30T21:59:40.720Z,19.80
2022-07-30T22:02:18.765Z,19.80
2022-07-30T22:04:47.582Z,19.80
2022-07-30T22:07:17.427Z,19.80
2022-07-30T22:09:44.375Z,19.70
2022-07-30T22:12:12.488Z,19.70
2022-07-30T22:14:39.995Z,19.60
2022-07-30T22:17:22.350Z,19.60
2022-07-30T22:19:51.759Z,19.60
2022-07-30T22:22:26.261Z,19.60
2022-07-30T22:24:58.129Z,19.50
2022-07-30T22:27:27.198Z,19.60
2022-07-30T22:29:55.712Z,19.50
2022-07-30T22:32:24.380Z,19.50
2022-07-30T22:34:51.711Z,19.50
2022-07-30T22:37:21.532Z,19.50
2022-07-30T22:39:51.625Z,19.50
2022-07-30T22:42:20.075Z,19.50
2022-07-30T22:44:47.538Z,19.40
2022-07-30T22:47:21.118Z,19.40
2022-07-30T22:50:03.844Z,19.40
2022-07-30T22:52:37.999Z,19.40
2022-07-30T22:55:10.505Z,19.40
2022-07-30T22:57:40.134Z,19.40
2022-07-30T23:00:11.396Z,19.30
2022-07-30T23:02:40.297Z,19.30
2022-07-30T23:05:08.709Z,19.30
2022-07-30T23:07:39.502Z,19.20
2022-07-30T23:10:17.028Z,19.30
2022-07-30T23:12:15.503Z,20.80
2022-07-30T23:12:46.858Z,19.30
2022-07-30T23:15:13.956Z,19.20
2022-07-30T23:17:40.913Z,19.20
2022-07-30T23:20:10.863Z,19.20
2022-07-30T23:22:38.139Z,19.20
2022-07-30T23:25:06.385Z,19.20
2022-07-30T23:27:33.852Z,19.20
2022-07-30T23:30:00.792Z,19.10
2022-07-30T23:32:28.380Z,19.10
2022-07-30T23:34:55.286Z,19.10
2022-07-30T23:37:22.230Z,19.10
2022-07-30T23:39:49.209Z,19.00
2022-07-30T23:42:16.146Z,19.00
2022-07-30T23:44:42.984Z,19.00
2022-07-30T23:47:09.840Z,18.90
2022-07-30T23:49:36.710Z,18.90
2022-07-30T23:52:04.874Z,18.90
2022-07-30T23:54:32.350Z,18.90
2022-07-30T23:56:59.209Z,18.90
2022-07-30T23:59:40.761Z,18.80
